Date,TemperatureHighF,TemperatureAvgF,TemperatureLowF,DewpointHighF,DewpointAvgF,DewpointLowF,HumidityHigh,HumidityAvg,HumidityLow,PressureMaxIn,PressureMinIn,WindSpeedMaxMPH,WindSpeedAvgMPH,GustSpeedMaxMPH,PrecipitationSumIn
2013-7-1,81.7,74.7,70.9,81.5,74.1,70.6,99,98,86,29.59,29.44,5,1,10,0.14
2013-7-2,84.2,75.9,68.0,77.8,73.5,67.3,99,92,73,29.70,29.58,5,1,11,0.00
2013-7-3,89.1,75.8,64.2,77.2,71.9,64.0,99,89,60,29.72,29.65,4,1,14,0.00
2013-7-4,92.1,81.5,72.5,80.9,74.4,71.9,99,82,53,29.70,29.60,5,1,11,0.00
2013-7-5,47.1,41.4,35.2,40.3,29.7,24.5,92,63,52,29.23,28.88,5,2,8,0.01
2013-7-6,51.6,42.9,35.1,31.4,14.5,-6.5,82,39,10,29.30,29.21,6,2,11,0.00
2013-7-7,41.2,35.7,30.0,36.7,32.2,28.5,95,87,74,29.24,29.11,3,1,5,0.07
2013-7-8,52.5,42.9,32.0,39.5,36.1,29.9,97,80,44,29.12,28.84,3,1,9,0.14
2013-7-9,74.5,65.1,37.2,74.1,60.6,7.9,99,89,19,29.33,28.91,7,1,11,0.01
2013-7-10,85.8,74.3,66.9,80.7,72.2,66.7,99,94,70,29.32,29.05,6,1,14,0.09
2013-7-11,82.2,75.6,71.1,79.6,74.0,70.8,99,95,81,29.19,29.03,4,0,7,0.22
2013-7-12,75.2,69.7,65.3,70.8,63.6,58.6,99,81,67,29.45,29.18,3,1,6,0.00
2013-7-13,75.6,69.4,64.4,75.3,68.6,60.6,99,97,83,29.56,29.44,2,0,2,0.02
2013-7-14,90.1,79.6,70.7,81.3,73.1,70.4,99,82,55,29.55,29.46,2,0,6,0.01
2013-7-15,90.7,81.1,73.2,79.3,74.9,70.3,99,83,57,29.47,29.35,2,0,4,0.00
2013-7-16,92.3,81.3,71.4,74.5,70.4,66.1,98,72,44,29.42,29.36,4,0,7,0.00
2013-7-17,95.4,82.8,72.1,77.4,72.4,65.9,99,75,39,29.44,29.26,4,0,9,0.00
2013-7-18,96.3,84.9,75.9,78.3,74.1,66.1,97,73,40,29.27,29.18,4,0,7,0.00
2013-7-19,97.7,85.7,75.9,79.7,76.2,70.1,99,76,44,29.21,28.98,5,1,12,0.00
2013-7-20,93.7,82.9,72.5,80.7,75.6,66.4,99,80,48,29.06,28.91,4,1,11,0.07
2013-7-21,87.3,76.0,68.9,69.6,66.8,63.6,89,74,50,29.23,29.06,2,0,4,0.00
2013-7-22,85.5,73.6,40.1,74.5,68.3,7.9,99,86,22,29.35,29.11,4,1,7,21.45
2013-7-23,84.6,73.0,68.9,83.4,72.6,68.6,99,99,88,29.22,28.88,4,0,8,0.72
2013-7-24,84.9,75.7,66.6,79.1,68.4,56.9,99,80,51,29.29,28.92,3,0,8,0.00
2013-7-25,66.4,59.4,57.6,59.7,55.3,49.7,99,87,69,29.44,29.29,2,1,7,0.53
2013-7-26,71.4,63.7,59.0,71.0,63.5,58.7,99,99,99,29.39,29.29,3,0,8,0.28
2013-7-27,84.6,70.9,59.9,72.1,64.6,59.6,99,83,50,29.41,29.33,4,0,7,0.01
2013-7-28,86.5,72.3,63.9,74.6,68.6,63.6,99,90,55,29.37,29.29,3,0,4,0.00
2013-7-29,84.9,73.0,65.1,76.2,70.5,64.9,99,92,66,29.39,29.30,5,0,11,0.11
2013-7-30,83.8,71.1,61.0,67.7,60.8,54.4,99,73,39,29.44,29.38,4,0,7,0.00
2013-7-31,82.6,71.3,61.2,65.3,61.0,54.9,96,73,40,29.48,29.38,2,0,6,0.00